Logo AVAMET
Benvolgut visitant, si us plau, ingressa Recuperar contrasenya

València Primat Reig

Dades diàries. Acumulats / Últims 30 dies disponibles

Data Temperatura (°C) Humitat rel. (%) Pressió rel. (hPa) Vent (km/h) Precipitació
Mínima Mitjana Màxima Amplitud
tèrmica
Mínima Mitjana Màxima Mínima Mitjana Màxima Predom. Mitjana Ràfega
màxima
Total
(mm)
Índex-n
Mínima Mitjana Màxima Mínima Mitjana Màxima n
0 a 1
P0 max
mm 5'
Dades mensuals acumulades fins l'últim dia disponible
06/2019 13,8 17,3 20,3 20,5 20,6 24,3 30,4 16,6 2 62 89 1.001 1.015 1.024   9,3 9,3 0,0
Dades anuals acumulades fins l'últim dia disponible
2019 2,8 11,4 20,4 15,1 9,4 19,5 31,8 29,0 2 58 95 994 1.018 1.035   8,6 63,3 77,7
Últims 30 dies disponibles
17-06-2019 17,6     19,1     22,6 5,0 69 84 89 1.015 1.016 1.017 N 9,3 9,3 0,0
16-06-2019 18,4     20,3     22,2 3,8 46 73 86 1.016 1.019 1.021 N 9,3 9,3 0,0
15-06-2019 20,3     23,6     30,4 10,1 2 35 71 1.011 1.016 1.020 N 9,3 9,3 0,0
14-06-2019 17,8     22,4     27,6 9,8 37 56 88 1.009 1.010 1.012 N 9,3 9,3 0,0
13-06-2019 17,6     19,0     20,8 3,2 58 72 83 1.011 1.013 1.016 N 9,3 9,3 0,0
12-06-2019 13,8     18,6     20,6 6,8 38 60 80 1.015 1.016 1.018 N 9,3 9,3 0,0
11-06-2019 17,3     19,3     21,3 4,0 40 60 80 1.009 1.012 1.017 N 9,3 9,3 0,0
10-06-2019 17,4     20,7     24,6 7,2 33 58 82 1.011 1.014 1.016 N 9,3 9,3 0,0
09-06-2019 17,5     20,6     26,0 8,5 25 54 74 1.013 1.016 1.020 N 9,3 9,3 0,0
08-06-2019 18,5     19,6     20,8 2,3 54 69 87 1.018 1.022 1.024 N 9,3 9,3 0,0
07-06-2019 16,8     22,6     29,7 12,9 2 53 88 1.009 1.012 1.018 N 9,3 9,3 0,0
06-06-2019 16,5     19,5     21,8 5,3 56 72 88 1.009 1.013 1.016 N 9,3 9,3 0,0
05-06-2019 17,7     21,8     28,5 10,8 2 53 89 1.003 1.008 1.014 N 9,3 9,3 0,0
04-06-2019 17,2     20,0     23,4 6,2 65 80 89 1.001 1.009 1.013 N 9,3 9,3 0,0
03-06-2019 16,8     20,3     24,4 7,6 44 66 86 1.012 1.017 1.019 N 9,3 9,3 0,0
02-06-2019 16,3     20,4     24,8 8,5 32 50 73 1.018 1.020 1.021 N 9,3 9,3 0,0
01-06-2019 16,2     20,1     23,8 7,6 38 57 79 1.020 1.022 1.024 N 9,3 9,3 0,0
31-05-2019 15,9     19,9     24,3 8,4 39 60 80 1.023 1.024 1.025 N 9,3 9,3 0,0
30-05-2019 14,6     19,2     23,5 8,9 33 52 80 1.024 1.025 1.027 N 9,3 9,3 0,0
29-05-2019 16,2     19,2     21,9 5,7 25 40 64 1.018 1.021 1.025 N 9,3 9,3 0,0
28-05-2019 17,7     19,3     21,5 3,8 48 65 89 1.010 1.013 1.018 N 9,3 9,3 0,0
27-05-2019 16,1     18,8     23,4 7,3 44 67 90 1.009 1.012 1.014 N 9,3 9,3 0,0
26-05-2019 15,9     19,2     22,2 6,3 41 58 73 1.013 1.014 1.016 N 9,3 9,3 0,0
25-05-2019 15,7     18,3     22,9 7,2 43 67 90 1.012 1.013 1.016 N 9,3 9,3 1,0
24-05-2019 15,8     17,1     18,9 3,1 76 86 91 1.010 1.012 1.013 N 9,3 9,3 5,0
23-05-2019 16,1     19,3     23,4 7,3 49 74 89 1.012 1.015 1.017 N 9,3 9,3 0,0
22-05-2019 14,3     18,0     22,6 8,3 57 75 87 1.015 1.016 1.018 N 9,3 9,3 0,0
21-05-2019 15,8     17,5     20,9 5,1 63 75 87 1.013 1.015 1.016 N 9,3 9,3 5,3
20-05-2019 14,4     17,5     21,0 6,6 37 57 83 1.011 1.012 1.014 N 9,3 9,3 0,0
19-05-2019 13,7     17,7     25,4 11,7 21 53 75 1.008 1.010 1.012 N 9,3 9,3 0,0
Últims 13 mesos disponibles
05/2019 10,1 15,2 20,4 18,2 18,0 22,1 31,8 21,7 40 65 86 1.004 1.014 1.025 N 9,3 9,3 17,3
04/2019 9,4 12,1 15,4 15,2 14,9 19,3 29,5 20,1 35 61 86 997 1.012 1.024 N 9,3 9,3 49,4
03/2019 7,5 10,5 16,5 14,4 13,2 19,1 28,5 21,0 34 53 84 1.010 1.024 1.030 NO 8,0 56,4 11,0
02/2019 4,5 8,4 11,7 12,4 9,4 17,3 24,1 19,6 29 58 75 995 1.025 1.033 OSO 7,6 63,3 0,0
01/2019 2,8 7,4 12,7 11,9 11,9 16,7 20,5 17,7 26 49 72 1.003 1.019 1.030 ONO 8,3 59,8 0,0
11/2018 8,9 12,8 16,2 15,2 15,8 18,3 24,0 15,1 50 69 87 597 968 1.026 O 8,8 48,0 133,1
10/2018 7,7 15,6 19,9 18,6 13,8 22,0 26,9 19,2 37 66 85 837 977 1.013 7,1 71,0 111,7
09/2018 18,0 21,0 23,5 23,9 24,0 27,3 30,8 12,8 48 72 80 537 944 1.010 6,6 45,0 130,6
08/2018 21,5 23,7 26,4 26,5 25,9 30,1 35,3 13,8 48 66 77 965 1.003 1.010 7,3 68,0 10,4
07/2018 21,8 23,1 25,7 25,8 26,3 29,3 37,1 15,3 35 67 82 954 1.001 1.010 7,9 45,0 0,0
06/2018 15,2 19,8 22,4 23,0 22,3 26,4 30,7 15,5 37 61 76 998 1.005 1.011 7,8 44,0 89,6
05/2018 9,9 15,6 18,5 18,6 16,8 22,7 27,2 17,3 36 61 81 1.001 1.006 1.009 6,8 53,0 19,0
04/2018 9,6 13,1 16,8 16,1 14,0 19,7 25,5 15,9 37 56 81 986 1.005 1.017 9,3 59,0 13,6
Tots els anys disponibles
2017 1,6 15,2 26,3 18,4 9,3 22,3 36,5 34,9 19 58 83 987 1.009 1.027 SSO 7,7 81,0 278,2
Temperatura (°C)
Humitat relativa (%)
Velocitat del vent i ràfega màxima (km/h)
Direcció del vent (°)
Pressió (hPa)
Precipitació (mm)
Nota sobre les dades: s'avisa a l'usuari de la provisionalitat i no oficialitat d'aquestes dades
Logo AVAMET blanc
Web allotjada a Sollutia
Llicència de Creative CommonsLa web d'AVAMET i els seus continguts estan subjectes a una llicència de
Reconeixement - No Comercial - Compartir igual
Últimes estacions: Villena - Villa Ventín (Soci), Benissa - Convent (Soci), Xàbia Fontanella (Soci), Castielfabib (Soci), Sant Mateu (Soci), - - -